Time;durP1;ratioP1;P1;durP2;ratioP2;P2;SDS_P1;SDS_P2;PMS_P1;PMS_P2;Temp;Humidity;BMP_temperature;BMP_pressure;BME280_temperature;BME280_humidity;BME280_pressure;Samples;Min_cycle;Max_cycle;Signal;HPM_P1;HPM_P2
2023/04/12 00:01:15;;;;;;;10.03;1.80;;;11.00;81.80;;;;;;5056794;28;20108;-76
2023/04/12 00:03:40;;;;;;;10.53;1.57;;;11.00;82.50;;;;;;5040659;28;20045;-75
2023/04/12 00:06:06;;;;;;;8.13;1.60;;;11.00;82.80;;;;;;5057139;28;20028;-77
2023/04/12 00:08:34;;;;;;;9.77;1.60;;;11.00;83.20;;;;;;5056687;28;20032;-78
2023/04/12 00:11:00;;;;;;;8.20;2.43;;;10.90;84.10;;;;;;5040208;28;20044;-77
2023/04/12 00:13:27;;;;;;;11.53;1.97;;;10.90;85.60;;;;;;5040370;28;20036;-77
2023/04/12 00:15:52;;;;;;;9.83;1.97;;;10.80;86.20;;;;;;5056900;28;20029;-76
2023/04/12 00:18:18;;;;;;;10.50;1.70;;;10.70;87.10;;;;;;5040077;28;20031;-76
2023/04/12 00:20:44;;;;;;;7.90;1.20;;;10.70;87.50;;;;;;5056523;28;20492;-76
2023/04/12 00:23:11;;;;;;;7.77;1.53;;;10.60;88.30;;;;;;5056615;28;20048;-75
2023/04/12 00:25:38;;;;;;;9.97;1.57;;;10.60;89.70;;;;;;5056985;28;20108;-76
2023/04/12 00:28:05;;;;;;;10.67;2.00;;;10.50;90.30;;;;;;5056116;28;20020;-76
2023/04/12 00:30:31;;;;;;;7.50;2.00;;;10.50;90.60;;;;;;5056405;28;20028;-76
2023/04/12 00:32:57;;;;;;;8.33;1.27;;;10.40;91.10;;;;;;5039674;28;20079;-76
2023/04/12 00:35:23;;;;;;;6.47;1.27;;;10.40;91.30;;;;;;5056237;28;20028;-77
2023/04/12 00:37:49;;;;;;;9.93;1.60;;;10.40;92.30;;;;;;5039775;28;20059;-76
2023/04/12 00:40:15;;;;;;;10.87;1.73;;;10.30;92.40;;;;;;5056337;28;20021;-75
2023/04/12 00:42:41;;;;;;;7.97;1.43;;;10.30;92.90;;;;;;5074358;28;20105;-75
2023/04/12 00:45:07;;;;;;;8.93;1.73;;;10.30;93.40;;;;;;5074050;28;20029;-75
2023/04/12 00:47:36;;;;;;;5.27;1.20;;;10.20;94.00;;;;;;5039688;28;20024;-75
2023/04/12 00:50:07;;;;;;;8.67;2.03;;;10.20;94.30;;;;;;5074021;28;20402;-75
2023/04/12 00:52:36;;;;;;;11.03;1.53;;;10.20;95.20;;;;;;5056418;28;20032;-75
2023/04/12 00:55:07;;;;;;;9.53;1.20;;;10.10;95.90;;;;;;5039905;28;20029;-76
2023/04/12 00:57:36;;;;;;;10.77;1.10;;;10.10;96.10;;;;;;5039314;28;20035;-76
2023/04/12 01:00:11;;;;;;;7.33;0.90;;;10.10;96.90;;;;;;5055764;28;20024;-78
2023/04/12 01:02:38;;;;;;;5.47;1.00;;;10.00;97.60;;;;;;5055508;28;20111;-76
2023/04/12 01:05:06;;;;;;;5.80;1.10;;;10.00;98.30;;;;;;5073729;28;20107;-77
2023/04/12 01:08:10;;;;;;;6.23;1.20;;;9.90;99.00;;;;;;5055662;28;20021;-75
2023/04/12 01:11:18;;;;;;;5.72;0.93;;;9.90;98.80;;;;;;5012384;28;20071;-76
2023/04/12 01:13:43;;;;;;;6.27;1.10;;;9.90;99.40;;;;;;4985479;28;20037;-74
2023/04/12 01:16:43;;;;;;;6.60;1.30;;;9.90;99.90;;;;;;5055712;28;20032;-75
2023/04/12 01:19:27;;;;;;;6.53;1.17;;;9.90;99.90;;;;;;5068562;28;20871;-75
2023/04/12 01:22:16;;;;;;;4.63;1.10;;;9.80;99.90;;;;;;5055643;28;20055;-75
2023/04/12 01:25:03;;;;;;;6.27;1.10;;;9.80;99.90;;;;;;5055647;28;20102;-75
2023/04/12 01:27:43;;;;;;;5.57;0.90;;;9.80;99.90;;;;;;5055169;28;20033;-75
2023/04/12 01:30:12;;;;;;;4.80;0.90;;;9.80;99.90;;;;;;5055508;28;20043;-75
2023/04/12 01:32:42;;;;;;;8.70;1.13;;;9.80;99.90;;;;;;5055695;28;20029;-76
2023/04/12 01:35:08;;;;;;;8.23;1.07;;;9.70;99.90;;;;;;5055450;28;20400;-76
2023/04/12 01:37:35;;;;;;;6.90;1.40;;;9.70;99.90;;;;;;5073552;28;20036;-76
2023/04/12 01:40:04;;;;;;;5.77;1.20;;;9.70;99.90;;;;;;5042122;28;20538;-74
2023/04/12 01:42:30;;;;;;;3.20;0.80;;;9.70;99.90;;;;;;5043710;28;20031;-77
2023/04/12 01:44:56;;;;;;;7.00;1.10;;;9.70;99.90;;;;;;5042876;28;20025;-77
2023/04/12 01:47:22;;;;;;;4.70;1.00;;;9.60;99.90;;;;;;5059805;28;20033;-76
2023/04/12 01:50:02;;;;;;;6.27;1.13;;;9.60;99.90;;;;;;5042506;28;20030;-76
2023/04/12 01:52:31;;;;;;;9.07;1.20;;;9.60;99.90;;;;;;5059515;28;20025;-76
2023/04/12 01:54:57;;;;;;;10.23;1.10;;;9.60;99.90;;;;;;5077218;28;20028;-77
2023/04/12 01:57:25;;;;;;;6.53;1.20;;;9.60;99.90;;;;;;5077205;28;20388;-75
2023/04/12 01:59:53;;;;;;;8.70;1.10;;;9.60;99.90;;;;;;5042446;28;20036;-76
2023/04/12 02:02:19;;;;;;;5.93;1.20;;;9.60;99.90;;;;;;5059051;28;20020;-75
2023/04/12 02:04:46;;;;;;;7.23;1.40;;;9.60;99.90;;;;;;5042318;28;20128;-76
2023/04/12 02:07:14;;;;;;;9.47;1.50;;;9.60;99.90;;;;;;5042531;28;20077;-76
2023/04/12 02:09:40;;;;;;;5.57;1.20;;;9.60;99.90;;;;;;5059144;28;20463;-77
2023/04/12 02:12:06;;;;;;;7.40;1.43;;;9.50;99.90;;;;;;5042597;28;20052;-76
2023/04/12 02:14:32;;;;;;;13.33;1.70;;;9.60;99.90;;;;;;5059042;28;20033;-77
2023/04/12 02:16:58;;;;;;;8.20;1.43;;;9.60;99.90;;;;;;5059029;28;20421;-75
2023/04/12 02:19:24;;;;;;;7.00;1.43;;;9.60;99.90;;;;;;5041939;28;20041;-76
2023/04/12 02:21:50;;;;;;;8.70;1.13;;;9.60;99.90;;;;;;5076661;28;20047;-76
2023/04/12 02:24:16;;;;;;;6.87;1.20;;;9.60;99.90;;;;;;5042524;28;20029;-80
2023/04/12 02:26:41;;;;;;;5.80;1.33;;;9.50;99.90;;;;;;5058827;28;20025;-80
2023/04/12 02:29:08;;;;;;;6.17;1.10;;;9.60;99.90;;;;;;5058639;28;20044;-80
2023/04/12 02:31:35;;;;;;;10.23;1.43;;;9.50;99.90;;;;;;5058483;28;20538;-80
2023/04/12 02:34:02;;;;;;;11.77;1.30;;;9.50;99.90;;;;;;5058363;28;20024;-78
2023/04/12 02:36:28;;;;;;;6.03;1.00;;;9.50;99.90;;;;;;5041885;28;20115;-79
2023/04/12 02:38:54;;;;;;;6.53;1.20;;;9.50;99.90;;;;;;5041735;28;20020;-79
2023/04/12 02:41:21;;;;;;;6.97;1.43;;;9.50;99.90;;;;;;5058621;28;20056;-80
2023/04/12 02:43:47;;;;;;;5.07;1.10;;;9.50;99.90;;;;;;5058216;28;20024;-79
2023/04/12 02:46:22;;;;;;;5.53;1.10;;;9.50;99.90;;;;;;5076536;28;20032;-79
2023/04/12 02:48:48;;;;;;;4.07;1.00;;;9.40;99.90;;;;;;5075990;28;20032;-79
2023/04/12 02:51:14;;;;;;;4.07;1.40;;;9.50;99.90;;;;;;5041264;28;20134;-79
2023/04/12 02:53:40;;;;;;;5.07;1.07;;;9.40;99.90;;;;;;5058012;28;20030;-79
2023/04/12 02:56:07;;;;;;;7.93;1.10;;;9.40;99.90;;;;;;5041269;28;20037;-79
2023/04/12 02:58:33;;;;;;;7.37;1.00;;;9.40;99.90;;;;;;5057880;28;20086;-80
2023/04/12 03:00:59;;;;;;;11.00;1.80;;;9.40;99.90;;;;;;5076156;28;20112;-79
2023/04/12 03:03:27;;;;;;;5.07;1.00;;;9.40;99.90;;;;;;5054345;28;20124;-80
2023/04/12 03:05:53;;;;;;;10.93;1.40;;;9.40;99.90;;;;;;5038099;28;20025;-79
2023/04/12 03:08:20;;;;;;;5.60;1.27;;;9.40;99.90;;;;;;5054417;28;20029;-80
2023/04/12 03:10:45;;;;;;;3.77;0.93;;;9.40;99.90;;;;;;5054865;28;20037;-81
2023/04/12 03:13:11;;;;;;;4.87;0.90;;;9.40;99.90;;;;;;5037739;28;20029;-80
2023/04/12 03:15:37;;;;;;;4.60;1.03;;;9.40;99.90;;;;;;5037837;28;20047;-80
2023/04/12 03:18:02;;;;;;;8.57;1.07;;;9.40;99.90;;;;;;5037870;28;20374;-80
2023/04/12 03:20:28;;;;;;;8.03;0.90;;;9.40;99.90;;;;;;5037750;28;20065;-80
2023/04/12 03:22:54;;;;;;;5.50;0.90;;;9.40;99.90;;;;;;5054209;28;20120;-80
2023/04/12 03:25:19;;;;;;;8.37;2.17;;;9.40;99.90;;;;;;5037843;28;20116;-79
2023/04/12 03:27:45;;;;;;;6.37;1.10;;;9.40;99.90;;;;;;5042979;28;20040;-80
2023/04/12 03:30:11;;;;;;;2.63;0.90;;;9.40;99.90;;;;;;5038995;28;20033;-79
2023/04/12 03:32:38;;;;;;;2.90;0.97;;;9.30;99.90;;;;;;5055270;28;20025;-81
2023/04/12 03:35:06;;;;;;;6.33;1.30;;;9.30;99.90;;;;;;5037448;28;20033;-79
2023/04/12 03:37:32;;;;;;;6.20;1.57;;;9.30;99.90;;;;;;5037909;28;20059;-80
2023/04/12 03:39:58;;;;;;;7.20;1.30;;;9.30;99.90;;;;;;5038140;28;20029;-80
2023/04/12 03:42:23;;;;;;;6.20;1.00;;;9.30;99.90;;;;;;5038161;28;20025;-81
2023/04/12 03:44:51;;;;;;;6.00;0.90;;;9.30;99.90;;;;;;5038430;28;20029;-80
2023/04/12 03:47:17;;;;;;;5.00;1.03;;;9.30;99.90;;;;;;5055081;28;20079;-80
2023/04/12 03:49:43;;;;;;;10.90;1.57;;;9.30;99.90;;;;;;5056003;28;20037;-80
2023/04/12 03:52:08;;;;;;;5.77;1.07;;;9.30;99.90;;;;;;5055288;28;20039;-79
2023/04/12 03:54:34;;;;;;;4.33;1.00;;;9.30;99.90;;;;;;5053840;28;20033;-80
2023/04/12 03:57:00;;;;;;;4.63;1.07;;;9.20;99.90;;;;;;5053736;28;20029;-80
2023/04/12 03:59:27;;;;;;;4.63;0.90;;;9.20;99.90;;;;;;5054838;28;20032;-79
2023/04/12 04:01:54;;;;;;;8.47;1.97;;;9.20;99.90;;;;;;5052954;28;20029;-79
2023/04/12 04:04:20;;;;;;;7.13;1.30;;;9.20;99.90;;;;;;5053397;28;20045;-79
2023/04/12 04:06:46;;;;;;;6.10;1.03;;;9.10;99.90;;;;;;5036884;28;20039;-80
2023/04/12 04:09:11;;;;;;;7.83;1.10;;;9.10;99.90;;;;;;5054654;28;20048;-79
2023/04/12 04:11:37;;;;;;;5.37;1.23;;;9.10;99.90;;;;;;5053250;28;20025;-79
2023/04/12 04:14:03;;;;;;;6.50;1.03;;;9.10;99.90;;;;;;5036666;28;20389;-80
2023/04/12 04:16:29;;;;;;;6.50;1.00;;;9.00;99.90;;;;;;5053219;28;20025;-79
2023/04/12 04:18:55;;;;;;;4.57;0.90;;;9.10;99.90;;;;;;5053065;28;20067;-80
2023/04/12 04:21:21;;;;;;;7.47;1.10;;;9.00;99.90;;;;;;5036276;28;20053;-79
2023/04/12 04:23:47;;;;;;;7.73;1.07;;;9.00;99.90;;;;;;5036551;28;20083;-80
2023/04/12 04:26:14;;;;;;;2.47;0.90;;;9.00;99.90;;;;;;5054327;28;20025;-79
2023/04/12 04:28:45;;;;;;;9.30;1.60;;;9.00;99.90;;;;;;5036495;28;20025;-79
2023/04/12 04:31:11;;;;;;;5.53;1.00;;;9.00;99.90;;;;;;5054168;28;20078;-81
2023/04/12 04:33:38;;;;;;;7.83;1.73;;;8.90;99.90;;;;;;5052881;28;20021;-79
2023/04/12 04:36:08;;;;;;;7.17;1.07;;;8.90;99.90;;;;;;5054360;28;20377;-79
2023/04/12 04:38:34;;;;;;;5.03;1.00;;;8.90;99.90;;;;;;5052667;28;20028;-81
2023/04/12 04:41:01;;;;;;;6.37;1.57;;;8.90;99.90;;;;;;5052777;28;20013;-79
2023/04/12 04:43:29;;;;;;;3.20;1.07;;;8.90;99.90;;;;;;5052676;28;20025;-81
2023/04/12 04:45:56;;;;;;;5.33;1.03;;;8.90;99.90;;;;;;5053980;28;20013;-80
2023/04/12 04:48:22;;;;;;;4.73;1.00;;;8.90;99.90;;;;;;5052694;28;20025;-79
2023/04/12 04:50:47;;;;;;;4.80;1.40;;;8.90;99.90;;;;;;5052781;28;20033;-79
2023/04/12 04:53:15;;;;;;;7.47;1.10;;;8.90;99.90;;;;;;5052582;28;20083;-80
2023/04/12 04:55:40;;;;;;;5.83;1.00;;;8.90;99.90;;;;;;5052506;28;20028;-80
2023/04/12 04:58:06;;;;;;;3.90;1.00;;;8.90;99.90;;;;;;5048797;28;20097;-79
2023/04/12 05:00:34;;;;;;;5.13;1.10;;;8.80;99.90;;;;;;5051831;28;20028;-79
2023/04/12 05:03:01;;;;;;;5.00;1.60;;;8.90;99.90;;;;;;5041281;28;20421;-78
2023/04/12 05:05:28;;;;;;;3.27;1.17;;;8.80;99.90;;;;;;5059770;28;20126;-79
2023/04/12 05:07:54;;;;;;;4.03;0.90;;;8.80;99.90;;;;;;5073352;28;20024;-80
2023/04/12 05:10:20;;;;;;;4.53;1.10;;;8.80;99.90;;;;;;5039199;28;20040;-79
2023/04/12 05:12:45;;;;;;;4.13;1.20;;;8.80;99.90;;;;;;5038362;28;20024;-79
2023/04/12 05:15:11;;;;;;;4.20;1.37;;;8.80;99.90;;;;;;5038533;28;20078;-80
2023/04/12 05:17:37;;;;;;;4.47;1.23;;;8.90;99.90;;;;;;5055569;28;20103;-79
2023/04/12 05:20:07;;;;;;;3.47;1.10;;;8.90;99.90;;;;;;5038754;28;20031;-80
2023/04/12 05:22:36;;;;;;;8.50;1.17;;;8.90;99.90;;;;;;5039534;28;20032;-79
2023/04/12 05:25:02;;;;;;;7.83;2.00;;;8.80;99.90;;;;;;5073581;28;20017;-79
2023/04/12 05:27:29;;;;;;;7.07;1.33;;;8.90;99.90;;;;;;5040618;28;20031;-79
2023/04/12 05:29:58;;;;;;;4.90;1.10;;;8.80;99.90;;;;;;5054093;28;20028;-79
2023/04/12 05:32:24;;;;;;;6.60;1.00;;;8.90;99.90;;;;;;5035854;28;20021;-79
2023/04/12 05:34:51;;;;;;;3.20;0.90;;;8.90;99.90;;;;;;5053160;28;20028;-80
2023/04/12 05:37:16;;;;;;;4.93;1.30;;;8.90;99.90;;;;;;5032167;28;20061;-80
2023/04/12 05:39:42;;;;;;;4.10;0.97;;;8.90;99.90;;;;;;5054914;28;20044;-79
2023/04/12 05:42:08;;;;;;;8.07;1.50;;;8.90;99.90;;;;;;5055430;28;20096;-80
2023/04/12 05:44:37;;;;;;;5.37;1.50;;;8.90;99.90;;;;;;5073210;28;20488;-81
2023/04/12 05:47:03;;;;;;;4.27;1.00;;;8.90;99.90;;;;;;5055190;28;20469;-80
2023/04/12 05:49:32;;;;;;;4.47;1.53;;;8.90;99.90;;;;;;5073317;28;20596;-80
2023/04/12 05:51:58;;;;;;;7.30;1.33;;;9.00;99.90;;;;;;5032600;28;20110;-79
2023/04/12 05:54:24;;;;;;;3.13;1.33;;;9.00;99.90;;;;;;5028450;28;20539;-79
2023/04/12 05:56:53;;;;;;;3.10;1.23;;;9.00;99.90;;;;;;5073006;28;20154;-79
2023/04/12 05:59:18;;;;;;;4.50;1.47;;;9.00;99.90;;;;;;5055452;28;20021;-80
2023/04/12 06:01:44;;;;;;;3.37;1.10;;;9.00;99.90;;;;;;5054883;28;20020;-81
2023/04/12 06:04:10;;;;;;;4.77;1.73;;;9.00;99.90;;;;;;5054831;28;20076;-82
2023/04/12 06:06:36;;;;;;;4.30;1.43;;;9.00;99.90;;;;;;5038391;28;20017;-80
2023/04/12 06:09:03;;;;;;;3.20;1.40;;;8.90;99.90;;;;;;5055095;28;20025;-80
2023/04/12 06:11:32;;;;;;;5.17;1.20;;;9.00;99.90;;;;;;5038405;28;20036;-80
2023/04/12 06:13:59;;;;;;;2.97;1.30;;;8.90;99.90;;;;;;5054682;28;20048;-80
2023/04/12 06:16:25;;;;;;;5.20;1.50;;;8.90;99.90;;;;;;5038464;28;20025;-81
2023/04/12 06:18:50;;;;;;;4.80;1.20;;;8.90;99.90;;;;;;5037986;28;20461;-79
2023/04/12 06:21:17;;;;;;;4.37;1.10;;;8.90;99.90;;;;;;5054761;28;20023;-80
2023/04/12 06:23:43;;;;;;;7.20;1.40;;;8.90;99.90;;;;;;5038144;28;20025;-80
2023/04/12 06:26:09;;;;;;;4.70;1.40;;;8.90;99.90;;;;;;5041549;28;20021;-80
2023/04/12 06:28:35;;;;;;;4.13;1.30;;;9.00;99.90;;;;;;5025548;28;20020;-80
2023/04/12 06:31:00;;;;;;;4.00;1.10;;;8.90;99.90;;;;;;5058578;28;20025;-85
2023/04/12 06:33:26;;;;;;;3.23;1.60;;;8.90;99.90;;;;;;5041944;28;20511;-80
2023/04/12 06:35:52;;;;;;;3.70;1.57;;;8.90;99.90;;;;;;5041791;28;20021;-80
2023/04/12 06:38:18;;;;;;;4.70;1.60;;;8.90;99.90;;;;;;5042053;28;20017;-79
2023/04/12 06:40:44;;;;;;;7.03;2.00;;;8.90;99.90;;;;;;5041480;28;20040;-81
2023/04/12 06:43:10;;;;;;;4.70;1.60;;;8.90;99.90;;;;;;5058189;28;20017;-81
2023/04/12 06:45:35;;;;;;;3.30;1.70;;;8.90;99.90;;;;;;5041656;28;20468;-81
2023/04/12 06:48:01;;;;;;;4.00;1.53;;;8.90;99.90;;;;;;5058471;28;20025;-78
2023/04/12 06:50:26;;;;;;;4.07;1.60;;;8.90;99.90;;;;;;5025163;28;20111;-78
2023/04/12 06:52:52;;;;;;;5.23;2.03;;;8.90;99.90;;;;;;5058402;28;20440;-78
2023/04/12 06:55:18;;;;;;;9.03;2.87;;;8.90;99.90;;;;;;5041558;28;20374;-78
2023/04/12 06:57:44;;;;;;;5.63;2.03;;;8.90;99.90;;;;;;5041585;28;20032;-77
2023/04/12 07:00:11;;;;;;;5.50;1.40;;;8.90;99.90;;;;;;5076263;28;20099;-77
2023/04/12 07:02:37;;;;;;;3.67;1.90;;;8.90;99.90;;;;;;5041492;28;20020;-77
2023/04/12 07:05:04;;;;;;;5.37;2.37;;;8.90;99.90;;;;;;5024673;28;20037;-77
2023/04/12 07:07:29;;;;;;;5.43;2.67;;;8.90;99.90;;;;;;5057976;28;20044;-78
2023/04/12 07:09:55;;;;;;;4.47;1.83;;;8.90;99.90;;;;;;5024786;28;20389;-79
2023/04/12 07:12:21;;;;;;;9.93;2.77;;;8.90;99.90;;;;;;5024685;28;20068;-78
2023/04/12 07:14:47;;;;;;;5.90;2.50;;;8.90;99.90;;;;;;5041050;28;20032;-78
2023/04/12 07:17:13;;;;;;;6.03;3.03;;;9.00;99.90;;;;;;5041103;28;20025;-77
2023/04/12 07:19:40;;;;;;;5.73;2.70;;;8.90;99.90;;;;;;5040998;28;20527;-78
2023/04/12 07:22:06;;;;;;;5.47;2.40;;;9.00;99.90;;;;;;5041239;28;20028;-78
2023/04/12 07:24:32;;;;;;;5.60;2.70;;;9.00;99.90;;;;;;5075852;28;20023;-77
2023/04/12 07:26:58;;;;;;;5.77;2.03;;;9.00;99.90;;;;;;5057571;28;20017;-77
2023/04/12 07:29:23;;;;;;;4.53;2.47;;;9.10;99.90;;;;;;5057325;28;20024;-77
2023/04/12 07:31:49;;;;;;;4.10;2.27;;;9.10;99.90;;;;;;5057578;28;20074;-78
2023/04/12 07:34:15;;;;;;;4.40;2.00;;;9.10;99.90;;;;;;5057436;28;20024;-78
2023/04/12 07:36:43;;;;;;;8.17;2.60;;;9.20;99.90;;;;;;5039773;28;20025;-77
2023/04/12 07:39:10;;;;;;;4.77;1.90;;;9.20;99.90;;;;;;5040929;28;20025;-77
2023/04/12 07:41:37;;;;;;;4.67;2.00;;;9.20;99.90;;;;;;5040767;28;20408;-79
2023/04/12 07:44:03;;;;;;;5.33;1.93;;;9.30;99.90;;;;;;5057384;28;20044;-78
2023/04/12 07:46:29;;;;;;;5.33;2.20;;;9.40;99.90;;;;;;5041080;28;20512;-77
2023/04/12 07:48:55;;;;;;;7.40;2.10;;;9.30;99.90;;;;;;5040625;28;20055;-77
2023/04/12 07:51:20;;;;;;;4.60;1.80;;;9.30;99.90;;;;;;5040412;28;20116;-77
2023/04/12 07:53:47;;;;;;;4.20;2.00;;;9.40;99.90;;;;;;5040323;28;20020;-78
2023/04/12 07:56:13;;;;;;;5.60;2.20;;;9.40;99.90;;;;;;5040457;28;20021;-77
2023/04/12 07:58:39;;;;;;;6.43;2.27;;;9.50;99.90;;;;;;5040621;28;20063;-77
2023/04/12 08:01:06;;;;;;;9.67;2.90;;;9.50;99.90;;;;;;5040316;28;20059;-77
2023/04/12 08:03:32;;;;;;;6.63;2.67;;;9.60;99.90;;;;;;5040153;28;20025;-78
2023/04/12 08:05:58;;;;;;;12.67;3.00;;;9.70;99.90;;;;;;5056935;28;20044;-77
2023/04/12 08:08:24;;;;;;;6.50;2.43;;;9.70;99.90;;;;;;5056518;28;20389;-77
2023/04/12 08:10:51;;;;;;;4.63;2.80;;;9.80;99.90;;;;;;5056548;28;20036;-77
2023/04/12 08:13:17;;;;;;;5.60;2.60;;;9.80;99.90;;;;;;5056502;28;20025;-77
2023/04/12 08:15:42;;;;;;;9.87;3.27;;;9.80;99.90;;;;;;5056445;28;20490;-77
2023/04/12 08:18:09;;;;;;;5.93;2.37;;;9.80;99.90;;;;;;5056862;28;20020;-77
2023/04/12 08:20:35;;;;;;;7.13;2.53;;;9.80;99.90;;;;;;5039945;28;20447;-77
2023/04/12 08:23:00;;;;;;;9.00;2.23;;;9.90;99.90;;;;;;5039618;28;20024;-77
2023/04/12 08:25:26;;;;;;;6.33;2.07;;;10.00;99.90;;;;;;5023338;28;20032;-77
2023/04/12 08:27:52;;;;;;;6.60;2.00;;;10.00;99.90;;;;;;5039567;28;20083;-77
2023/04/12 08:30:18;;;;;;;8.93;2.07;;;10.10;99.90;;;;;;5023693;28;20024;-77
2023/04/12 08:32:44;;;;;;;6.65;1.73;;;10.20;99.90;;;;;;5056283;28;20024;-77
2023/04/12 08:35:10;;;;;;;11.47;1.80;;;10.30;99.90;;;;;;5056713;28;20040;-77
2023/04/12 08:37:36;;;;;;;11.20;1.90;;;10.40;99.90;;;;;;5056072;28;20055;-77
2023/04/12 08:40:05;;;;;;;7.22;1.58;;;10.40;99.90;;;;;;5039743;28;20474;-77
2023/04/12 08:42:33;;;;;;;9.60;2.17;;;10.50;99.90;;;;;;5039742;28;20032;-77
2023/04/12 08:45:02;;;;;;;10.07;1.87;;;10.50;99.90;;;;;;5056102;28;20107;-77
2023/04/12 08:47:30;;;;;;;10.50;1.63;;;10.60;99.90;;;;;;5055780;28;20099;-77
2023/04/12 08:49:56;;;;;;;10.18;2.22;;;10.70;99.90;;;;;;5039577;28;20035;-77
2023/04/12 08:52:21;;;;;;;9.30;2.08;;;10.80;99.90;;;;;;5039466;28;20543;-77
2023/04/12 08:54:47;;;;;;;4.68;1.20;;;10.90;99.90;;;;;;5056149;28;20178;-77
2023/04/12 08:57:16;;;;;;;10.10;1.77;;;10.90;99.90;;;;;;5022771;28;20028;-77
2023/04/12 08:59:44;;;;;;;7.82;1.85;;;11.00;99.90;;;;;;5055631;28;20031;-77
2023/04/12 09:02:12;;;;;;;5.32;1.40;;;11.10;99.90;;;;;;5039808;28;20039;-81
2023/04/12 09:04:49;;;;;;;10.70;1.83;;;11.10;99.90;;;;;;5055409;28;20488;-82
2023/04/12 09:07:15;;;;;;;10.77;2.08;;;11.20;99.90;;;;;;5055521;28;20392;-81
2023/04/12 09:09:45;;;;;;;12.60;1.95;;;11.10;99.90;;;;;;5055478;28;20052;-82
2023/04/12 09:12:12;;;;;;;7.45;1.88;;;11.20;99.90;;;;;;5038804;28;20029;-82
2023/04/12 09:14:39;;;;;;;9.23;2.03;;;11.30;99.90;;;;;;5039222;28;20117;-81
2023/04/12 09:17:23;;;;;;;8.65;2.13;;;11.40;99.90;;;;;;5055353;28;20498;-82
2023/04/12 09:19:49;;;;;;;7.53;1.42;;;11.60;99.90;;;;;;5055329;28;20028;-82
2023/04/12 09:22:15;;;;;;;8.13;1.52;;;11.70;99.90;;;;;;5073357;28;20119;-82
2023/04/12 09:24:50;;;;;;;8.43;1.92;;;11.80;99.90;;;;;;5022522;28;20016;-82
2023/04/12 09:27:19;;;;;;;9.10;2.15;;;12.00;99.90;;;;;;5055301;28;20534;-82
2023/04/12 09:29:50;;;;;;;11.00;2.30;;;12.10;99.90;;;;;;5055302;28;20017;-81
2023/04/12 09:32:25;;;;;;;10.70;2.38;;;12.20;99.90;;;;;;5073271;28;20082;-82
2023/04/12 09:34:56;;;;;;;7.97;1.88;;;12.50;99.90;;;;;;5073247;28;20086;-83
2023/04/12 09:37:22;;;;;;;7.30;1.70;;;12.60;99.90;;;;;;5055182;28;20119;-83
2023/04/12 09:40:04;;;;;;;10.02;1.90;;;12.80;99.90;;;;;;5055225;28;20392;-82
2023/04/12 09:42:32;;;;;;;10.43;1.48;;;13.00;99.90;;;;;;5056234;28;20099;-82
2023/04/12 09:44:58;;;;;;;9.25;2.38;;;13.10;99.90;;;;;;5038582;28;20112;-82
2023/04/12 09:47:37;;;;;;;13.20;2.67;;;13.10;99.90;;;;;;5055094;28;20024;-83
2023/04/12 09:50:06;;;;;;;12.10;1.98;;;13.20;99.90;;;;;;5055413;28;20445;-83
2023/04/12 09:52:36;;;;;;;15.55;2.20;;;13.30;99.90;;;;;;5022427;28;20049;-82
2023/04/12 09:55:08;;;;;;;18.58;2.55;;;13.40;99.90;;;;;;5058183;28;20021;-84
2023/04/12 09:57:44;;;;;;;11.80;1.67;;;13.50;99.90;;;;;;5058312;28;20049;-83
2023/04/12 10:00:15;;;;;;;10.98;1.92;;;13.50;98.90;;;;;;5059199;28;20032;-82
2023/04/12 10:02:43;;;;;;;8.32;1.48;;;13.60;99.00;;;;;;5077178;28;20058;-82
2023/04/12 10:05:12;;;;;;;15.73;2.08;;;13.70;98.90;;;;;;5060985;28;20089;-83
2023/04/12 10:07:43;;;;;;;15.93;2.10;;;13.80;98.50;;;;;;5045508;28;20025;-83
2023/04/12 10:10:12;;;;;;;10.45;1.65;;;13.90;97.90;;;;;;5076863;28;20087;-83
2023/04/12 10:12:40;;;;;;;12.63;2.15;;;14.00;97.00;;;;;;5042364;28;20051;-81
2023/04/12 10:15:11;;;;;;;9.32;1.83;;;14.00;96.00;;;;;;5059043;28;20039;-83
2023/04/12 10:17:56;;;;;;;16.80;2.40;;;14.00;95.40;;;;;;5077543;28;20020;-90
2023/04/12 10:20:22;;;;;;;;;;;14.00;94.80;;;;;;5026084;28;20040;-87
2023/04/12 10:22:52;;;;;;;16.17;2.40;;;14.20;94.50;;;;;;5061095;28;19904;-88
2023/04/12 10:25:24;;;;;;;14.10;2.25;;;14.30;94.50;;;;;;5062273;28;20384;-89
2023/04/12 10:27:50;;;;;;;14.32;2.50;;;14.30;93.90;;;;;;5078410;28;20112;-87
2023/04/12 10:30:31;;;;;;;12.60;2.05;;;14.40;93.60;;;;;;5043896;28;20024;-91
2023/04/12 10:33:03;;;;;;;11.73;2.03;;;14.60;92.90;;;;;;5060314;28;20094;-89
2023/04/12 10:35:47;;;;;;;9.82;2.03;;;14.90;92.90;;;;;;5059853;28;20499;-89
2023/04/12 10:38:13;;;;;;;14.57;2.22;;;15.20;92.10;;;;;;5060111;28;20035;-90
2023/04/12 10:41:26;;;;;;;16.90;3.05;;;15.30;90.80;;;;;;5060176;28;20021;-91
2023/04/12 10:44:27;;;;;;;11.38;2.35;;;15.20;89.00;;;;;;5056884;28;20020;-90
2023/04/12 10:46:53;;;;;;;10.70;2.40;;;15.10;86.10;;;;;;5059775;28;20021;-88
2023/04/12 10:49:19;;;;;;;12.13;2.10;;;14.90;84.60;;;;;;5060690;28;20120;-91
2023/04/12 10:52:01;;;;;;;11.07;2.17;;;14.80;84.70;;;;;;5059336;28;20028;-90
2023/04/12 10:54:30;;;;;;;11.00;1.70;;;14.70;83.70;;;;;;5059600;28;20036;-88
2023/04/12 10:56:56;;;;;;;10.63;1.92;;;14.50;83.80;;;;;;5059657;28;20067;-89
2023/04/12 10:59:22;;;;;;;10.18;1.85;;;14.50;84.30;;;;;;5042806;28;20064;-90
2023/04/12 11:02:06;;;;;;;11.27;1.85;;;14.60;85.70;;;;;;5059485;28;20024;-90
2023/04/12 11:04:31;;;;;;;9.18;1.92;;;14.80;85.20;;;;;;5060002;28;20104;-90
2023/04/12 11:07:06;;;;;;;11.48;2.20;;;14.90;86.00;;;;;;5059275;28;20055;-90
2023/04/12 11:09:44;;;;;;;12.02;2.72;;;15.20;85.30;;;;;;5059680;28;20050;-89
2023/04/12 11:12:14;;;;;;;11.00;2.28;;;15.70;85.60;;;;;;5041462;28;20484;-89
2023/04/12 11:14:50;;;;;;;11.68;2.30;;;16.30;84.70;;;;;;5059973;28;20035;-87
2023/04/12 11:17:15;;;;;;;16.75;1.90;;;16.60;82.00;;;;;;5064058;28;20496;-91
2023/04/12 11:19:43;;;;;;;10.95;1.65;;;16.50;80.10;;;;;;5070042;28;20032;-89
2023/04/12 11:22:11;;;;;;;14.10;2.30;;;16.30;77.90;;;;;;5069295;28;20012;-88
2023/04/12 11:24:45;;;;;;;11.30;1.98;;;16.00;76.60;;;;;;5065340;28;20027;-89
2023/04/12 11:27:11;;;;;;;;;;;15.80;77.10;;;;;;5064888;28;20066;-90
2023/04/12 11:29:37;;;;;;;11.10;1.98;;;15.60;76.90;;;;;;5046108;28;19908;-91
2023/04/12 11:32:04;;;;;;;12.70;2.10;;;15.50;77.70;;;;;;5077454;28;20377;-90
2023/04/12 11:34:34;;;;;;;12.25;1.92;;;15.40;77.30;;;;;;5059141;28;20028;-90
2023/04/12 11:37:04;;;;;;;11.50;1.45;;;15.20;77.40;;;;;;5060134;28;20028;-92
2023/04/12 11:39:30;;;;;;;18.13;2.40;;;15.10;78.00;;;;;;5059041;28;20021;-90
2023/04/12 11:41:56;;;;;;;19.70;3.05;;;15.10;77.90;;;;;;5059603;28;20017;-90
2023/04/12 11:44:23;;;;;;;14.57;2.17;;;15.10;76.00;;;;;;5058746;28;20024;-89
2023/04/12 11:46:49;;;;;;;14.45;2.20;;;15.00;76.30;;;;;;5058761;28;20035;-88
2023/04/12 11:49:16;;;;;;;14.57;2.50;;;15.10;76.30;;;;;;5041893;28;20388;-87
2023/04/12 11:51:43;;;;;;;19.48;2.25;;;15.40;77.30;;;;;;5042491;28;20074;-88
2023/04/12 11:54:10;;;;;;;13.55;2.65;;;15.60;75.60;;;;;;5058901;28;20084;-91
2023/04/12 11:56:36;;;;;;;9.50;1.95;;;15.70;73.70;;;;;;5059065;28;20051;-89
2023/04/12 11:59:03;;;;;;;20.50;2.75;;;15.70;69.80;;;;;;5041723;28;20052;-91
2023/04/12 12:01:30;;;;;;;9.68;1.27;;;15.50;68.00;;;;;;5058408;28;20476;-86
2023/04/12 12:03:58;;;;;;;8.52;1.17;;;15.30;68.90;;;;;;5058558;28;20043;-88
2023/04/12 12:06:24;;;;;;;12.93;1.70;;;15.20;66.50;;;;;;5042206;28;20028;-90
2023/04/12 12:08:50;;;;;;;11.20;1.20;;;15.10;66.90;;;;;;5058123;28;20055;-86
2023/04/12 12:11:20;;;;;;;6.72;1.38;;;14.90;67.40;;;;;;5059506;28;20025;-86
2023/04/12 12:13:54;;;;;;;14.88;1.30;;;14.70;67.20;;;;;;5041309;28;20020;-86
2023/04/12 12:16:27;;;;;;;8.82;1.55;;;14.60;67.60;;;;;;5058958;28;20069;-85
2023/04/12 12:18:53;;;;;;;15.43;2.17;;;14.40;68.50;;;;;;5058163;28;20025;-85
2023/04/12 12:21:19;;;;;;;13.40;1.73;;;14.40;68.40;;;;;;5058381;28;20031;-86
2023/04/12 12:23:46;;;;;;;12.05;1.48;;;14.40;69.10;;;;;;5040897;28;20029;-85
2023/04/12 12:26:26;;;;;;;10.45;1.25;;;14.40;69.50;;;;;;5058132;28;20056;-83
2023/04/12 12:28:54;;;;;;;10.45;1.75;;;14.50;70.00;;;;;;5057245;28;20017;-84
2023/04/12 12:31:26;;;;;;;12.55;2.20;;;14.70;70.10;;;;;;5056943;28;20016;-84
2023/04/12 12:33:57;;;;;;;7.32;1.30;;;14.80;70.20;;;;;;5056931;28;20028;-83
2023/04/12 12:36:54;;;;;;;7.93;1.50;;;14.90;69.80;;;;;;5040461;28;20051;-81
2023/04/12 12:39:20;;;;;;;12.75;1.42;;;14.90;68.40;;;;;;5055954;28;20499;-85
2023/04/12 12:41:54;;;;;;;11.50;1.33;;;14.90;68.30;;;;;;5056599;28;20051;-86
2023/04/12 12:44:20;;;;;;;;;;;15.10;66.70;;;;;;5057293;28;20113;-84
2023/04/12 12:46:46;;;;;;;8.38;1.25;;;15.30;65.50;;;;;;5056810;28;19912;-84
2023/04/12 12:49:11;;;;;;;6.97;1.08;;;15.30;65.20;;;;;;5023325;28;20075;-84
2023/04/12 12:51:37;;;;;;;7.18;1.52;;;15.30;63.90;;;;;;5056133;28;20133;-83
2023/04/12 12:54:04;;;;;;;6.28;0.95;;;15.20;60.60;;;;;;5074799;28;20028;-83
2023/04/12 12:56:29;;;;;;;7.22;0.85;;;15.10;60.50;;;;;;5055967;28;20029;-83